sensor_id;sensor_type;location;lat;lon;timestamp;P1;durP1;ratioP1;P2;durP2;ratioP2
22388;SDS011;11362;48.102;11.620;2022-08-19T00:01:51;3.43;;;2.17;;
22388;SDS011;11362;48.102;11.620;2022-08-19T00:04:18;2.63;;;2.23;;
22388;SDS011;11362;48.102;11.620;2022-08-19T00:06:46;2.60;;;2.40;;
22388;SDS011;11362;48.102;11.620;2022-08-19T00:09:13;2.57;;;2.20;;
22388;SDS011;11362;48.102;11.620;2022-08-19T00:11:40;2.73;;;2.53;;
22388;SDS011;11362;48.102;11.620;2022-08-19T00:14:06;2.23;;;2.03;;
22388;SDS011;11362;48.102;11.620;2022-08-19T00:16:33;3.13;;;2.83;;
22388;SDS011;11362;48.102;11.620;2022-08-19T00:18:58;2.50;;;2.33;;
22388;SDS011;11362;48.102;11.620;2022-08-19T00:21:24;3.37;;;2.60;;
22388;SDS011;11362;48.102;11.620;2022-08-19T00:23:51;3.20;;;2.20;;
22388;SDS011;11362;48.102;11.620;2022-08-19T00:26:16;2.07;;;1.97;;
22388;SDS011;11362;48.102;11.620;2022-08-19T00:28:41;2.40;;;1.63;;
22388;SDS011;11362;48.102;11.620;2022-08-19T00:31:08;2.33;;;2.13;;
22388;SDS011;11362;48.102;11.620;2022-08-19T00:33:34;2.13;;;2.03;;
22388;SDS011;11362;48.102;11.620;2022-08-19T00:36:00;2.33;;;2.00;;
22388;SDS011;11362;48.102;11.620;2022-08-19T00:38:27;2.30;;;2.10;;
22388;SDS011;11362;48.102;11.620;2022-08-19T00:40:53;1.90;;;1.80;;
22388;SDS011;11362;48.102;11.620;2022-08-19T00:43:19;1.97;;;1.87;;
22388;SDS011;11362;48.102;11.620;2022-08-19T00:45:47;1.93;;;1.83;;
22388;SDS011;11362;48.102;11.620;2022-08-19T00:48:13;2.40;;;2.27;;
22388;SDS011;11362;48.102;11.620;2022-08-19T00:50:39;2.57;;;1.93;;
22388;SDS011;11362;48.102;11.620;2022-08-19T00:53:06;2.00;;;1.80;;
22388;SDS011;11362;48.102;11.620;2022-08-19T00:55:32;2.00;;;1.70;;
22388;SDS011;11362;48.102;11.620;2022-08-19T00:58:00;2.00;;;1.90;;
22388;SDS011;11362;48.102;11.620;2022-08-19T01:00:28;1.90;;;1.80;;
22388;SDS011;11362;48.102;11.620;2022-08-19T01:02:54;1.90;;;1.60;;
22388;SDS011;11362;48.102;11.620;2022-08-19T01:05:22;3.70;;;1.97;;
22388;SDS011;11362;48.102;11.620;2022-08-19T01:07:49;2.93;;;1.90;;
22388;SDS011;11362;48.102;11.620;2022-08-19T01:10:16;1.70;;;1.60;;
22388;SDS011;11362;48.102;11.620;2022-08-19T01:12:44;4.00;;;2.13;;
22388;SDS011;11362;48.102;11.620;2022-08-19T01:15:11;3.07;;;1.67;;
22388;SDS011;11362;48.102;11.620;2022-08-19T01:17:39;1.53;;;1.43;;
22388;SDS011;11362;48.102;11.620;2022-08-19T01:20:05;1.80;;;1.70;;
22388;SDS011;11362;48.102;11.620;2022-08-19T01:22:34;2.07;;;1.97;;
22388;SDS011;11362;48.102;11.620;2022-08-19T01:25:07;1.73;;;1.63;;
22388;SDS011;11362;48.102;11.620;2022-08-19T01:27:37;1.63;;;1.53;;
22388;SDS011;11362;48.102;11.620;2022-08-19T01:30:04;1.77;;;1.60;;
22388;SDS011;11362;48.102;11.620;2022-08-19T01:32:30;1.73;;;1.63;;
22388;SDS011;11362;48.102;11.620;2022-08-19T01:34:55;1.93;;;1.83;;
22388;SDS011;11362;48.102;11.620;2022-08-19T01:37:20;1.70;;;1.60;;
22388;SDS011;11362;48.102;11.620;2022-08-19T01:39:46;2.93;;;1.83;;
22388;SDS011;11362;48.102;11.620;2022-08-19T01:42:11;1.73;;;1.43;;
22388;SDS011;11362;48.102;11.620;2022-08-19T01:44:37;4.47;;;2.00;;
22388;SDS011;11362;48.102;11.620;2022-08-19T01:47:03;1.70;;;1.60;;
22388;SDS011;11362;48.102;11.620;2022-08-19T01:49:29;1.80;;;1.70;;
22388;SDS011;11362;48.102;11.620;2022-08-19T01:51:54;2.50;;;1.67;;
22388;SDS011;11362;48.102;11.620;2022-08-19T01:54:21;2.40;;;1.80;;
22388;SDS011;11362;48.102;11.620;2022-08-19T01:56:48;2.03;;;1.63;;
22388;SDS011;11362;48.102;11.620;2022-08-19T01:59:16;2.80;;;2.30;;
22388;SDS011;11362;48.102;11.620;2022-08-19T02:01:43;1.60;;;1.53;;
22388;SDS011;11362;48.102;11.620;2022-08-19T02:04:09;2.00;;;1.90;;
22388;SDS011;11362;48.102;11.620;2022-08-19T02:06:34;1.93;;;1.60;;
22388;SDS011;11362;48.102;11.620;2022-08-19T02:09:00;1.90;;;1.80;;
22388;SDS011;11362;48.102;11.620;2022-08-19T02:11:26;1.57;;;1.47;;
22388;SDS011;11362;48.102;11.620;2022-08-19T02:13:55;2.00;;;1.53;;
22388;SDS011;11362;48.102;11.620;2022-08-19T02:16:21;2.57;;;1.63;;
22388;SDS011;11362;48.102;11.620;2022-08-19T02:18:47;1.23;;;1.23;;
22388;SDS011;11362;48.102;11.620;2022-08-19T02:21:12;1.73;;;1.63;;
22388;SDS011;11362;48.102;11.620;2022-08-19T02:23:38;2.00;;;1.80;;
22388;SDS011;11362;48.102;11.620;2022-08-19T02:26:03;1.40;;;1.40;;
22388;SDS011;11362;48.102;11.620;2022-08-19T02:28:28;1.70;;;1.60;;
22388;SDS011;11362;48.102;11.620;2022-08-19T02:30:54;1.70;;;1.70;;
22388;SDS011;11362;48.102;11.620;2022-08-19T02:33:19;1.33;;;1.33;;
22388;SDS011;11362;48.102;11.620;2022-08-19T02:35:44;1.57;;;1.47;;
22388;SDS011;11362;48.102;11.620;2022-08-19T02:38:11;1.63;;;1.50;;
22388;SDS011;11362;48.102;11.620;2022-08-19T02:40:37;2.03;;;1.60;;
22388;SDS011;11362;48.102;11.620;2022-08-19T02:43:03;1.40;;;1.40;;
22388;SDS011;11362;48.102;11.620;2022-08-19T02:45:34;1.63;;;1.63;;
22388;SDS011;11362;48.102;11.620;2022-08-19T02:48:00;1.37;;;1.37;;
22388;SDS011;11362;48.102;11.620;2022-08-19T02:50:26;1.63;;;1.53;;
22388;SDS011;11362;48.102;11.620;2022-08-19T02:52:51;1.30;;;1.20;;
22388;SDS011;11362;48.102;11.620;2022-08-19T02:55:17;1.37;;;1.37;;
22388;SDS011;11362;48.102;11.620;2022-08-19T02:57:42;1.90;;;1.43;;
22388;SDS011;11362;48.102;11.620;2022-08-19T03:00:08;1.37;;;1.37;;
22388;SDS011;11362;48.102;11.620;2022-08-19T03:02:34;1.70;;;1.70;;
22388;SDS011;11362;48.102;11.620;2022-08-19T03:04:59;1.77;;;1.67;;
22388;SDS011;11362;48.102;11.620;2022-08-19T03:07:24;2.10;;;1.40;;
22388;SDS011;11362;48.102;11.620;2022-08-19T03:09:49;1.33;;;1.33;;
22388;SDS011;11362;48.102;11.620;2022-08-19T03:12:15;2.37;;;1.40;;
22388;SDS011;11362;48.102;11.620;2022-08-19T03:14:40;1.43;;;1.37;;
22388;SDS011;11362;48.102;11.620;2022-08-19T03:17:05;1.33;;;1.33;;
22388;SDS011;11362;48.102;11.620;2022-08-19T03:19:31;1.23;;;1.20;;
22388;SDS011;11362;48.102;11.620;2022-08-19T03:21:57;1.30;;;1.30;;
22388;SDS011;11362;48.102;11.620;2022-08-19T03:24:23;1.40;;;1.30;;
22388;SDS011;11362;48.102;11.620;2022-08-19T03:26:53;1.50;;;1.50;;
22388;SDS011;11362;48.102;11.620;2022-08-19T03:29:19;1.70;;;1.60;;
22388;SDS011;11362;48.102;11.620;2022-08-19T03:31:45;1.43;;;1.33;;
22388;SDS011;11362;48.102;11.620;2022-08-19T03:34:29;1.40;;;1.30;;
22388;SDS011;11362;48.102;11.620;2022-08-19T03:36:56;1.73;;;1.70;;
22388;SDS011;11362;48.102;11.620;2022-08-19T03:39:24;1.23;;;1.23;;
22388;SDS011;11362;48.102;11.620;2022-08-19T03:41:51;1.40;;;1.33;;
22388;SDS011;11362;48.102;11.620;2022-08-19T03:44:18;1.17;;;1.17;;
22388;SDS011;11362;48.102;11.620;2022-08-19T03:46:47;1.60;;;1.50;;
22388;SDS011;11362;48.102;11.620;2022-08-19T03:49:15;1.30;;;1.30;;
22388;SDS011;11362;48.102;11.620;2022-08-19T03:51:41;1.53;;;1.43;;
22388;SDS011;11362;48.102;11.620;2022-08-19T03:54:08;1.30;;;1.30;;
22388;SDS011;11362;48.102;11.620;2022-08-19T03:56:37;1.13;;;1.13;;
22388;SDS011;11362;48.102;11.620;2022-08-19T03:59:03;1.90;;;1.30;;
22388;SDS011;11362;48.102;11.620;2022-08-19T04:01:29;1.33;;;1.30;;
22388;SDS011;11362;48.102;11.620;2022-08-19T04:03:55;1.10;;;1.10;;
22388;SDS011;11362;48.102;11.620;2022-08-19T04:06:23;1.20;;;1.20;;
22388;SDS011;11362;48.102;11.620;2022-08-19T04:08:51;1.30;;;1.30;;
22388;SDS011;11362;48.102;11.620;2022-08-19T04:11:20;2.17;;;1.10;;
22388;SDS011;11362;48.102;11.620;2022-08-19T04:13:48;1.27;;;1.23;;
22388;SDS011;11362;48.102;11.620;2022-08-19T04:16:14;1.07;;;1.07;;
22388;SDS011;11362;48.102;11.620;2022-08-19T04:18:39;1.23;;;1.20;;
22388;SDS011;11362;48.102;11.620;2022-08-19T04:21:06;1.07;;;1.03;;
22388;SDS011;11362;48.102;11.620;2022-08-19T04:23:32;1.40;;;1.40;;
22388;SDS011;11362;48.102;11.620;2022-08-19T04:25:59;1.20;;;1.20;;
22388;SDS011;11362;48.102;11.620;2022-08-19T04:28:24;1.10;;;1.10;;
22388;SDS011;11362;48.102;11.620;2022-08-19T04:30:50;1.00;;;1.00;;
22388;SDS011;11362;48.102;11.620;2022-08-19T04:33:18;0.93;;;0.93;;
22388;SDS011;11362;48.102;11.620;2022-08-19T04:35:46;1.47;;;1.37;;
22388;SDS011;11362;48.102;11.620;2022-08-19T04:38:13;1.40;;;1.30;;
22388;SDS011;11362;48.102;11.620;2022-08-19T04:40:40;1.30;;;1.30;;
22388;SDS011;11362;48.102;11.620;2022-08-19T04:43:06;1.17;;;1.10;;
22388;SDS011;11362;48.102;11.620;2022-08-19T04:45:31;1.07;;;1.07;;
22388;SDS011;11362;48.102;11.620;2022-08-19T04:47:56;1.20;;;1.10;;
22388;SDS011;11362;48.102;11.620;2022-08-19T04:50:22;1.10;;;1.10;;
22388;SDS011;11362;48.102;11.620;2022-08-19T04:52:48;1.30;;;1.30;;
22388;SDS011;11362;48.102;11.620;2022-08-19T04:55:15;1.30;;;1.30;;
22388;SDS011;11362;48.102;11.620;2022-08-19T04:57:41;1.13;;;1.13;;
22388;SDS011;11362;48.102;11.620;2022-08-19T05:00:09;1.27;;;1.20;;
22388;SDS011;11362;48.102;11.620;2022-08-19T05:02:36;2.17;;;1.43;;
22388;SDS011;11362;48.102;11.620;2022-08-19T05:05:02;1.47;;;1.37;;
22388;SDS011;11362;48.102;11.620;2022-08-19T05:07:27;1.30;;;1.30;;
22388;SDS011;11362;48.102;11.620;2022-08-19T05:09:53;2.90;;;1.50;;
22388;SDS011;11362;48.102;11.620;2022-08-19T05:12:19;1.30;;;1.20;;
22388;SDS011;11362;48.102;11.620;2022-08-19T05:14:45;1.00;;;1.00;;
22388;SDS011;11362;48.102;11.620;2022-08-19T05:17:10;1.30;;;1.30;;
22388;SDS011;11362;48.102;11.620;2022-08-19T05:19:36;1.40;;;1.30;;
22388;SDS011;11362;48.102;11.620;2022-08-19T05:22:01;1.00;;;1.00;;
22388;SDS011;11362;48.102;11.620;2022-08-19T05:24:26;1.10;;;1.10;;
22388;SDS011;11362;48.102;11.620;2022-08-19T05:26:54;1.10;;;1.10;;
22388;SDS011;11362;48.102;11.620;2022-08-19T05:29:21;1.27;;;1.27;;
22388;SDS011;11362;48.102;11.620;2022-08-19T05:31:47;1.40;;;1.30;;
22388;SDS011;11362;48.102;11.620;2022-08-19T05:34:13;1.10;;;1.10;;
22388;SDS011;11362;48.102;11.620;2022-08-19T05:36:40;2.20;;;1.40;;
22388;SDS011;11362;48.102;11.620;2022-08-19T05:39:07;1.10;;;1.10;;
22388;SDS011;11362;48.102;11.620;2022-08-19T05:41:33;1.13;;;1.13;;
22388;SDS011;11362;48.102;11.620;2022-08-19T05:44:03;1.10;;;1.10;;
22388;SDS011;11362;48.102;11.620;2022-08-19T05:46:29;2.40;;;1.30;;
22388;SDS011;11362;48.102;11.620;2022-08-19T05:48:55;1.47;;;1.37;;
22388;SDS011;11362;48.102;11.620;2022-08-19T05:51:20;1.43;;;1.30;;
22388;SDS011;11362;48.102;11.620;2022-08-19T05:53:45;1.20;;;1.20;;
22388;SDS011;11362;48.102;11.620;2022-08-19T05:56:12;1.20;;;1.20;;
22388;SDS011;11362;48.102;11.620;2022-08-19T05:58:40;1.20;;;1.20;;
22388;SDS011;11362;48.102;11.620;2022-08-19T06:01:09;1.10;;;1.10;;
22388;SDS011;11362;48.102;11.620;2022-08-19T06:03:39;1.13;;;1.13;;
22388;SDS011;11362;48.102;11.620;2022-08-19T06:06:12;1.10;;;1.10;;
22388;SDS011;11362;48.102;11.620;2022-08-19T06:08:39;0.93;;;0.93;;
22388;SDS011;11362;48.102;11.620;2022-08-19T06:11:14;2.17;;;1.30;;
22388;SDS011;11362;48.102;11.620;2022-08-19T06:14:00;1.00;;;1.00;;
22388;SDS011;11362;48.102;11.620;2022-08-19T06:16:29;1.30;;;1.30;;
22388;SDS011;11362;48.102;11.620;2022-08-19T06:18:55;1.13;;;1.03;;
22388;SDS011;11362;48.102;11.620;2022-08-19T06:21:22;1.20;;;1.20;;
22388;SDS011;11362;48.102;11.620;2022-08-19T06:23:48;1.20;;;1.10;;
22388;SDS011;11362;48.102;11.620;2022-08-19T06:26:14;1.23;;;1.23;;
22388;SDS011;11362;48.102;11.620;2022-08-19T06:28:40;0.87;;;0.87;;
22388;SDS011;11362;48.102;11.620;2022-08-19T06:31:06;1.43;;;1.40;;
22388;SDS011;11362;48.102;11.620;2022-08-19T06:33:32;1.07;;;1.00;;
22388;SDS011;11362;48.102;11.620;2022-08-19T06:35:57;1.27;;;1.17;;
22388;SDS011;11362;48.102;11.620;2022-08-19T06:38:22;1.53;;;1.43;;
22388;SDS011;11362;48.102;11.620;2022-08-19T06:40:48;1.27;;;1.27;;
22388;SDS011;11362;48.102;11.620;2022-08-19T06:43:13;2.40;;;1.50;;
22388;SDS011;11362;48.102;11.620;2022-08-19T06:45:38;1.40;;;1.40;;
22388;SDS011;11362;48.102;11.620;2022-08-19T06:48:03;1.40;;;1.30;;
22388;SDS011;11362;48.102;11.620;2022-08-19T06:50:29;1.23;;;1.23;;
22388;SDS011;11362;48.102;11.620;2022-08-19T06:52:54;1.40;;;1.40;;
22388;SDS011;11362;48.102;11.620;2022-08-19T06:55:19;1.40;;;1.30;;
22388;SDS011;11362;48.102;11.620;2022-08-19T06:57:45;1.60;;;1.50;;
22388;SDS011;11362;48.102;11.620;2022-08-19T07:00:10;1.57;;;1.50;;
22388;SDS011;11362;48.102;11.620;2022-08-19T07:02:35;2.97;;;1.47;;
22388;SDS011;11362;48.102;11.620;2022-08-19T07:05:01;1.90;;;1.80;;
22388;SDS011;11362;48.102;11.620;2022-08-19T07:07:26;3.37;;;1.73;;
22388;SDS011;11362;48.102;11.620;2022-08-19T07:09:51;2.83;;;1.90;;
22388;SDS011;11362;48.102;11.620;2022-08-19T07:12:17;1.73;;;1.63;;
22388;SDS011;11362;48.102;11.620;2022-08-19T07:14:42;2.20;;;1.90;;
22388;SDS011;11362;48.102;11.620;2022-08-19T07:17:09;3.13;;;1.53;;
22388;SDS011;11362;48.102;11.620;2022-08-19T07:19:36;3.73;;;3.43;;
22388;SDS011;11362;48.102;11.620;2022-08-19T07:22:04;3.43;;;3.20;;
22388;SDS011;11362;48.102;11.620;2022-08-19T07:24:31;9.33;;;5.73;;
22388;SDS011;11362;48.102;11.620;2022-08-19T07:26:57;5.60;;;5.07;;
22388;SDS011;11362;48.102;11.620;2022-08-19T07:29:24;5.27;;;4.77;;
22388;SDS011;11362;48.102;11.620;2022-08-19T07:31:50;5.23;;;4.73;;
22388;SDS011;11362;48.102;11.620;2022-08-19T07:34:16;4.67;;;4.27;;
22388;SDS011;11362;48.102;11.620;2022-08-19T07:36:42;5.03;;;4.63;;
22388;SDS011;11362;48.102;11.620;2022-08-19T07:39:11;5.23;;;4.73;;
22388;SDS011;11362;48.102;11.620;2022-08-19T07:41:42;7.53;;;5.57;;
22388;SDS011;11362;48.102;11.620;2022-08-19T07:44:08;6.03;;;5.20;;
22388;SDS011;11362;48.102;11.620;2022-08-19T07:46:35;6.67;;;5.97;;
22388;SDS011;11362;48.102;11.620;2022-08-19T07:49:02;6.37;;;5.80;;
22388;SDS011;11362;48.102;11.620;2022-08-19T07:51:29;6.43;;;6.00;;
22388;SDS011;11362;48.102;11.620;2022-08-19T07:53:55;6.90;;;6.23;;
22388;SDS011;11362;48.102;11.620;2022-08-19T07:56:21;6.43;;;5.90;;
22388;SDS011;11362;48.102;11.620;2022-08-19T07:58:48;6.97;;;6.37;;
22388;SDS011;11362;48.102;11.620;2022-08-19T08:01:16;6.10;;;5.50;;
22388;SDS011;11362;48.102;11.620;2022-08-19T08:03:44;7.50;;;6.57;;
22388;SDS011;11362;48.102;11.620;2022-08-19T08:06:09;7.47;;;6.87;;
22388;SDS011;11362;48.102;11.620;2022-08-19T08:08:36;7.90;;;6.40;;
22388;SDS011;11362;48.102;11.620;2022-08-19T08:11:01;6.90;;;6.33;;
22388;SDS011;11362;48.102;11.620;2022-08-19T08:13:27;7.93;;;7.23;;
22388;SDS011;11362;48.102;11.620;2022-08-19T08:15:52;6.57;;;6.03;;
22388;SDS011;11362;48.102;11.620;2022-08-19T08:18:18;7.77;;;6.90;;
22388;SDS011;11362;48.102;11.620;2022-08-19T08:20:43;6.90;;;6.30;;
22388;SDS011;11362;48.102;11.620;2022-08-19T08:23:08;6.77;;;6.17;;
22388;SDS011;11362;48.102;11.620;2022-08-19T08:25:34;5.87;;;5.37;;
22388;SDS011;11362;48.102;11.620;2022-08-19T08:28:02;6.83;;;6.33;;
22388;SDS011;11362;48.102;11.620;2022-08-19T08:30:29;6.73;;;5.83;;
22388;SDS011;11362;48.102;11.620;2022-08-19T08:32:55;6.83;;;6.07;;
22388;SDS011;11362;48.102;11.620;2022-08-19T08:35:22;7.03;;;6.43;;
22388;SDS011;11362;48.102;11.620;2022-08-19T08:37:49;6.50;;;6.00;;
22388;SDS011;11362;48.102;11.620;2022-08-19T08:43:02;6.80;;;6.20;;
22388;SDS011;11362;48.102;11.620;2022-08-19T08:45:32;6.00;;;5.40;;
22388;SDS011;11362;48.102;11.620;2022-08-19T08:48:13;7.60;;;5.73;;
22388;SDS011;11362;48.102;11.620;2022-08-19T08:50:44;6.20;;;5.60;;
22388;SDS011;11362;48.102;11.620;2022-08-19T08:53:13;6.37;;;5.87;;
22388;SDS011;11362;48.102;11.620;2022-08-19T08:55:41;6.87;;;5.83;;
22388;SDS011;11362;48.102;11.620;2022-08-19T08:58:09;8.67;;;5.53;;
22388;SDS011;11362;48.102;11.620;2022-08-19T09:00:38;10.43;;;9.40;;
22388;SDS011;11362;48.102;11.620;2022-08-19T09:03:10;7.37;;;6.67;;
22388;SDS011;11362;48.102;11.620;2022-08-19T09:05:49;6.60;;;5.90;;
22388;SDS011;11362;48.102;11.620;2022-08-19T09:11:19;8.07;;;6.53;;
22388;SDS011;11362;48.102;11.620;2022-08-19T09:14:01;6.80;;;6.20;;
22388;SDS011;11362;48.102;11.620;2022-08-19T09:16:34;6.60;;;5.73;;
22388;SDS011;11362;48.102;11.620;2022-08-19T09:19:03;8.03;;;5.93;;
22388;SDS011;11362;48.102;11.620;2022-08-19T09:21:31;7.13;;;6.60;;
22388;SDS011;11362;48.102;11.620;2022-08-19T09:23:56;6.93;;;6.33;;
22388;SDS011;11362;48.102;11.620;2022-08-19T09:26:22;7.23;;;6.60;;
22388;SDS011;11362;48.102;11.620;2022-08-19T09:28:49;6.77;;;6.17;;
22388;SDS011;11362;48.102;11.620;2022-08-19T09:31:17;6.93;;;6.23;;
22388;SDS011;11362;48.102;11.620;2022-08-19T09:33:45;5.90;;;5.30;;
22388;SDS011;11362;48.102;11.620;2022-08-19T09:36:13;6.00;;;5.40;;
22388;SDS011;11362;48.102;11.620;2022-08-19T09:38:41;5.87;;;5.37;;
22388;SDS011;11362;48.102;11.620;2022-08-19T09:41:08;5.93;;;5.40;;
22388;SDS011;11362;48.102;11.620;2022-08-19T09:43:35;5.30;;;4.97;;
22388;SDS011;11362;48.102;11.620;2022-08-19T09:46:00;6.27;;;5.30;;
22388;SDS011;11362;48.102;11.620;2022-08-19T09:48:26;6.07;;;5.57;;
22388;SDS011;11362;48.102;11.620;2022-08-19T09:50:52;5.50;;;5.00;;
22388;SDS011;11362;48.102;11.620;2022-08-19T09:53:17;6.10;;;5.60;;
22388;SDS011;11362;48.102;11.620;2022-08-19T09:55:43;6.00;;;5.40;;
22388;SDS011;11362;48.102;11.620;2022-08-19T09:58:09;6.10;;;5.40;;
22388;SDS011;11362;48.102;11.620;2022-08-19T10:00:34;5.37;;;4.87;;
22388;SDS011;11362;48.102;11.620;2022-08-19T10:03:02;5.50;;;5.10;;
22388;SDS011;11362;48.102;11.620;2022-08-19T10:05:27;6.17;;;5.53;;
22388;SDS011;11362;48.102;11.620;2022-08-19T10:07:53;5.30;;;4.93;;
22388;SDS011;11362;48.102;11.620;2022-08-19T10:10:18;5.80;;;5.20;;
22388;SDS011;11362;48.102;11.620;2022-08-19T10:12:43;5.70;;;5.20;;
22388;SDS011;11362;48.102;11.620;2022-08-19T10:15:09;6.60;;;5.97;;
22388;SDS011;11362;48.102;11.620;2022-08-19T10:17:34;5.40;;;4.90;;
22388;SDS011;11362;48.102;11.620;2022-08-19T10:20:00;5.87;;;5.37;;
22388;SDS011;11362;48.102;11.620;2022-08-19T10:22:25;6.07;;;5.47;;
22388;SDS011;11362;48.102;11.620;2022-08-19T10:24:50;6.10;;;5.20;;
22388;SDS011;11362;48.102;11.620;2022-08-19T10:27:16;6.93;;;5.50;;
22388;SDS011;11362;48.102;11.620;2022-08-19T10:29:41;6.13;;;5.50;;
22388;SDS011;11362;48.102;11.620;2022-08-19T10:32:08;5.50;;;5.00;;
22388;SDS011;11362;48.102;11.620;2022-08-19T10:34:35;5.63;;;5.17;;
22388;SDS011;11362;48.102;11.620;2022-08-19T10:37:02;5.43;;;5.03;;
22388;SDS011;11362;48.102;11.620;2022-08-19T10:39:29;5.70;;;5.30;;
22388;SDS011;11362;48.102;11.620;2022-08-19T10:41:55;5.20;;;4.90;;
22388;SDS011;11362;48.102;11.620;2022-08-19T10:44:21;6.33;;;5.67;;
22388;SDS011;11362;48.102;11.620;2022-08-19T10:46:46;5.70;;;5.20;;
22388;SDS011;11362;48.102;11.620;2022-08-19T10:49:11;5.37;;;4.97;;
22388;SDS011;11362;48.102;11.620;2022-08-19T10:51:38;7.20;;;5.03;;
22388;SDS011;11362;48.102;11.620;2022-08-19T10:54:04;6.80;;;5.27;;
22388;SDS011;11362;48.102;11.620;2022-08-19T10:56:30;5.77;;;5.27;;
22388;SDS011;11362;48.102;11.620;2022-08-19T10:58:55;5.40;;;4.90;;
22388;SDS011;11362;48.102;11.620;2022-08-19T11:01:21;5.40;;;4.90;;
22388;SDS011;11362;48.102;11.620;2022-08-19T11:03:46;4.93;;;4.63;;
22388;SDS011;11362;48.102;11.620;2022-08-19T11:06:11;4.93;;;4.57;;
22388;SDS011;11362;48.102;11.620;2022-08-19T11:08:37;5.20;;;4.90;;
22388;SDS011;11362;48.102;11.620;2022-08-19T11:11:03;4.83;;;4.53;;
22388;SDS011;11362;48.102;11.620;2022-08-19T11:13:30;5.63;;;5.07;;
22388;SDS011;11362;48.102;11.620;2022-08-19T11:15:58;6.13;;;4.80;;
22388;SDS011;11362;48.102;11.620;2022-08-19T11:18:25;5.43;;;5.03;;
22388;SDS011;11362;48.102;11.620;2022-08-19T11:20:50;6.70;;;4.90;;
22388;SDS011;11362;48.102;11.620;2022-08-19T11:23:16;6.77;;;4.73;;
22388;SDS011;11362;48.102;11.620;2022-08-19T11:25:41;9.00;;;5.50;;
22388;SDS011;11362;48.102;11.620;2022-08-19T11:28:06;9.70;;;5.17;;
22388;SDS011;11362;48.102;11.620;2022-08-19T11:30:32;8.13;;;5.03;;
22388;SDS011;11362;48.102;11.620;2022-08-19T11:32:57;5.30;;;4.80;;
22388;SDS011;11362;48.102;11.620;2022-08-19T11:35:22;5.87;;;4.90;;
22388;SDS011;11362;48.102;11.620;2022-08-19T11:37:48;5.03;;;4.50;;
22388;SDS011;11362;48.102;11.620;2022-08-19T11:40:13;7.17;;;5.23;;
22388;SDS011;11362;48.102;11.620;2022-08-19T11:42:38;9.73;;;5.13;;
22388;SDS011;11362;48.102;11.620;2022-08-19T11:45:04;6.30;;;4.43;;
22388;SDS011;11362;48.102;11.620;2022-08-19T11:47:29;6.80;;;4.47;;
22388;SDS011;11362;48.102;11.620;2022-08-19T11:49:55;10.27;;;4.70;;
22388;SDS011;11362;48.102;11.620;2022-08-19T11:52:20;7.33;;;5.00;;
22388;SDS011;11362;48.102;11.620;2022-08-19T11:54:46;8.07;;;5.13;;
22388;SDS011;11362;48.102;11.620;2022-08-19T11:57:11;5.53;;;5.03;;
22388;SDS011;11362;48.102;11.620;2022-08-19T11:59:36;5.43;;;4.60;;
22388;SDS011;11362;48.102;11.620;2022-08-19T12:02:02;4.83;;;4.10;;
22388;SDS011;11362;48.102;11.620;2022-08-19T12:04:27;4.80;;;4.40;;
22388;SDS011;11362;48.102;11.620;2022-08-19T12:06:52;4.67;;;4.33;;
22388;SDS011;11362;48.102;11.620;2022-08-19T12:09:18;8.23;;;4.80;;
22388;SDS011;11362;48.102;11.620;2022-08-19T12:11:43;8.90;;;5.20;;
22388;SDS011;11362;48.102;11.620;2022-08-19T12:14:10;5.97;;;4.90;;
22388;SDS011;11362;48.102;11.620;2022-08-19T12:16:37;5.43;;;4.67;;
22388;SDS011;11362;48.102;11.620;2022-08-19T12:19:04;6.33;;;4.93;;
22388;SDS011;11362;48.102;11.620;2022-08-19T12:21:30;5.47;;;4.87;;
22388;SDS011;11362;48.102;11.620;2022-08-19T12:23:57;4.37;;;4.07;;
22388;SDS011;11362;48.102;11.620;2022-08-19T12:26:24;7.93;;;4.43;;
22388;SDS011;11362;48.102;11.620;2022-08-19T12:28:51;4.83;;;4.43;;
22388;SDS011;11362;48.102;11.620;2022-08-19T12:31:16;4.03;;;3.83;;
22388;SDS011;11362;48.102;11.620;2022-08-19T12:33:42;4.90;;;4.00;;
22388;SDS011;11362;48.102;11.620;2022-08-19T12:36:08;4.57;;;4.27;;
22388;SDS011;11362;48.102;11.620;2022-08-19T12:38:36;4.30;;;3.97;;
22388;SDS011;11362;48.102;11.620;2022-08-19T12:41:02;3.70;;;3.47;;
22388;SDS011;11362;48.102;11.620;2022-08-19T12:43:28;4.53;;;4.23;;
22388;SDS011;11362;48.102;11.620;2022-08-19T12:45:54;3.83;;;3.63;;
22388;SDS011;11362;48.102;11.620;2022-08-19T12:48:19;3.73;;;3.43;;
22388;SDS011;11362;48.102;11.620;2022-08-19T12:50:45;3.80;;;3.50;;
22388;SDS011;11362;48.102;11.620;2022-08-19T12:53:10;2.87;;;2.07;;
22388;SDS011;11362;48.102;11.620;2022-08-19T12:55:36;1.70;;;1.60;;
22388;SDS011;11362;48.102;11.620;2022-08-19T12:58:02;1.80;;;1.70;;
22388;SDS011;11362;48.102;11.620;2022-08-19T13:00:27;3.83;;;1.90;;
22388;SDS011;11362;48.102;11.620;2022-08-19T13:02:53;5.07;;;1.90;;
22388;SDS011;11362;48.102;11.620;2022-08-19T13:05:20;1.90;;;1.80;;
22388;SDS011;11362;48.102;11.620;2022-08-19T13:07:47;3.37;;;1.80;;
22388;SDS011;11362;48.102;11.620;2022-08-19T13:10:15;2.33;;;2.17;;
22388;SDS011;11362;48.102;11.620;2022-08-19T13:12:43;1.53;;;1.50;;
22388;SDS011;11362;48.102;11.620;2022-08-19T13:15:10;2.00;;;1.80;;
22388;SDS011;11362;48.102;11.620;2022-08-19T13:17:36;3.13;;;1.60;;
22388;SDS011;11362;48.102;11.620;2022-08-19T13:20:03;2.13;;;2.03;;
22388;SDS011;11362;48.102;11.620;2022-08-19T13:22:28;2.20;;;1.73;;
22388;SDS011;11362;48.102;11.620;2022-08-19T13:24:54;2.97;;;1.90;;
22388;SDS011;11362;48.102;11.620;2022-08-19T13:27:19;1.70;;;1.60;;
22388;SDS011;11362;48.102;11.620;2022-08-19T13:29:44;2.93;;;1.80;;
22388;SDS011;11362;48.102;11.620;2022-08-19T13:32:10;1.60;;;1.53;;
22388;SDS011;11362;48.102;11.620;2022-08-19T13:34:35;1.63;;;1.57;;
22388;SDS011;11362;48.102;11.620;2022-08-19T13:37:01;1.70;;;1.50;;
22388;SDS011;11362;48.102;11.620;2022-08-19T13:39:28;1.67;;;1.57;;
22388;SDS011;11362;48.102;11.620;2022-08-19T13:41:55;3.80;;;2.00;;
22388;SDS011;11362;48.102;11.620;2022-08-19T13:44:20;1.47;;;1.43;;
22388;SDS011;11362;48.102;11.620;2022-08-19T13:46:47;2.10;;;1.37;;
22388;SDS011;11362;48.102;11.620;2022-08-19T13:49:14;1.67;;;1.57;;
22388;SDS011;11362;48.102;11.620;2022-08-19T13:51:40;1.77;;;1.50;;
22388;SDS011;11362;48.102;11.620;2022-08-19T13:54:06;1.57;;;1.47;;
22388;SDS011;11362;48.102;11.620;2022-08-19T13:56:32;1.30;;;1.17;;
22388;SDS011;11362;48.102;11.620;2022-08-19T13:58:57;1.50;;;1.40;;
22388;SDS011;11362;48.102;11.620;2022-08-19T14:01:23;1.60;;;1.50;;
22388;SDS011;11362;48.102;11.620;2022-08-19T14:03:49;1.30;;;1.30;;
22388;SDS011;11362;48.102;11.620;2022-08-19T14:06:14;1.17;;;1.17;;
22388;SDS011;11362;48.102;11.620;2022-08-19T14:08:39;1.10;;;1.10;;
22388;SDS011;11362;48.102;11.620;2022-08-19T14:11:05;2.40;;;1.43;;
22388;SDS011;11362;48.102;11.620;2022-08-19T14:13:30;1.30;;;1.30;;
22388;SDS011;11362;48.102;11.620;2022-08-19T14:15:55;0.90;;;0.90;;
22388;SDS011;11362;48.102;11.620;2022-08-19T14:18:21;1.60;;;1.50;;
22388;SDS011;11362;48.102;11.620;2022-08-19T14:20:46;1.53;;;1.20;;
22388;SDS011;11362;48.102;11.620;2022-08-19T14:23:11;1.40;;;1.30;;
22388;SDS011;11362;48.102;11.620;2022-08-19T14:25:37;1.33;;;1.23;;
22388;SDS011;11362;48.102;11.620;2022-08-19T14:28:02;3.27;;;1.20;;
22388;SDS011;11362;48.102;11.620;2022-08-19T14:30:29;1.30;;;1.30;;
22388;SDS011;11362;48.102;11.620;2022-08-19T14:32:56;1.10;;;1.10;;
22388;SDS011;11362;48.102;11.620;2022-08-19T14:35:23;1.73;;;1.10;;